sensor_id;sensor_type;location;lat;lon;timestamp;temperature;humidity
14016;DHT22;7083;48.854;9.158;2023-05-17T00:00:53;6.20;99.90
14016;DHT22;7083;48.854;9.158;2023-05-17T00:03:20;6.20;99.90
14016;DHT22;7083;48.854;9.158;2023-05-17T00:05:46;6.10;99.90
14016;DHT22;7083;48.854;9.158;2023-05-17T00:08:13;6.10;99.90
14016;DHT22;7083;48.854;9.158;2023-05-17T00:10:41;6.10;99.90
14016;DHT22;7083;48.854;9.158;2023-05-17T00:13:08;6.00;99.90
14016;DHT22;7083;48.854;9.158;2023-05-17T00:15:35;6.00;99.90
14016;DHT22;7083;48.854;9.158;2023-05-17T00:18:01;6.00;99.90
14016;DHT22;7083;48.854;9.158;2023-05-17T00:20:28;5.90;99.90
14016;DHT22;7083;48.854;9.158;2023-05-17T00:22:55;5.80;99.90
14016;DHT22;7083;48.854;9.158;2023-05-17T00:25:21;5.80;99.90
14016;DHT22;7083;48.854;9.158;2023-05-17T00:27:49;5.80;99.90
14016;DHT22;7083;48.854;9.158;2023-05-17T00:30:16;5.80;99.90
14016;DHT22;7083;48.854;9.158;2023-05-17T00:32:43;5.80;99.90
14016;DHT22;7083;48.854;9.158;2023-05-17T00:35:11;5.80;99.90
14016;DHT22;7083;48.854;9.158;2023-05-17T00:37:37;5.70;99.90
14016;DHT22;7083;48.854;9.158;2023-05-17T00:40:05;5.70;99.90
14016;DHT22;7083;48.854;9.158;2023-05-17T00:42:32;5.70;99.90
14016;DHT22;7083;48.854;9.158;2023-05-17T00:45:00;5.60;99.90
14016;DHT22;7083;48.854;9.158;2023-05-17T00:47:26;5.60;99.90
14016;DHT22;7083;48.854;9.158;2023-05-17T00:49:53;5.50;99.90
14016;DHT22;7083;48.854;9.158;2023-05-17T00:52:20;5.50;99.90
14016;DHT22;7083;48.854;9.158;2023-05-17T00:54:47;5.50;99.90
14016;DHT22;7083;48.854;9.158;2023-05-17T00:57:14;5.50;99.90
14016;DHT22;7083;48.854;9.158;2023-05-17T00:59:42;5.40;99.90
14016;DHT22;7083;48.854;9.158;2023-05-17T01:02:11;5.40;99.90
14016;DHT22;7083;48.854;9.158;2023-05-17T01:04:37;5.40;99.90
14016;DHT22;7083;48.854;9.158;2023-05-17T01:07:04;5.40;99.90
14016;DHT22;7083;48.854;9.158;2023-05-17T01:09:31;5.30;99.90
14016;DHT22;7083;48.854;9.158;2023-05-17T01:12:06;5.30;99.90
14016;DHT22;7083;48.854;9.158;2023-05-17T01:14:43;5.30;99.90
14016;DHT22;7083;48.854;9.158;2023-05-17T01:17:16;5.30;99.90
14016;DHT22;7083;48.854;9.158;2023-05-17T01:19:54;5.30;99.90
14016;DHT22;7083;48.854;9.158;2023-05-17T01:22:32;5.30;99.90
14016;DHT22;7083;48.854;9.158;2023-05-17T01:25:26;5.30;99.90
14016;DHT22;7083;48.854;9.158;2023-05-17T01:27:58;5.30;99.90
14016;DHT22;7083;48.854;9.158;2023-05-17T01:30:28;5.30;99.90
14016;DHT22;7083;48.854;9.158;2023-05-17T01:32:56;5.30;99.90
14016;DHT22;7083;48.854;9.158;2023-05-17T01:35:24;5.30;99.90
14016;DHT22;7083;48.854;9.158;2023-05-17T01:37:51;5.30;99.90
14016;DHT22;7083;48.854;9.158;2023-05-17T01:40:18;5.30;99.90
14016;DHT22;7083;48.854;9.158;2023-05-17T01:42:48;5.30;99.90
14016;DHT22;7083;48.854;9.158;2023-05-17T01:45:20;5.30;99.90
14016;DHT22;7083;48.854;9.158;2023-05-17T01:47:54;5.30;99.90
14016;DHT22;7083;48.854;9.158;2023-05-17T01:50:23;5.30;99.90
14016;DHT22;7083;48.854;9.158;2023-05-17T01:52:54;5.20;99.90
14016;DHT22;7083;48.854;9.158;2023-05-17T01:55:26;5.20;99.90
14016;DHT22;7083;48.854;9.158;2023-05-17T01:57:56;5.20;99.90
14016;DHT22;7083;48.854;9.158;2023-05-17T02:00:26;5.20;99.90
14016;DHT22;7083;48.854;9.158;2023-05-17T02:02:53;5.20;99.90
14016;DHT22;7083;48.854;9.158;2023-05-17T02:05:20;5.20;99.90
14016;DHT22;7083;48.854;9.158;2023-05-17T02:07:47;5.20;99.90
14016;DHT22;7083;48.854;9.158;2023-05-17T02:10:14;5.20;99.90
14016;DHT22;7083;48.854;9.158;2023-05-17T02:12:40;5.20;99.90
14016;DHT22;7083;48.854;9.158;2023-05-17T02:15:08;5.20;99.90
14016;DHT22;7083;48.854;9.158;2023-05-17T02:17:37;5.20;99.90
14016;DHT22;7083;48.854;9.158;2023-05-17T02:20:06;5.10;99.90
14016;DHT22;7083;48.854;9.158;2023-05-17T02:22:33;5.20;99.90
14016;DHT22;7083;48.854;9.158;2023-05-17T02:24:59;5.10;99.90
14016;DHT22;7083;48.854;9.158;2023-05-17T02:27:26;5.10;99.90
14016;DHT22;7083;48.854;9.158;2023-05-17T02:29:53;5.20;99.90
14016;DHT22;7083;48.854;9.158;2023-05-17T02:32:19;5.10;99.90
14016;DHT22;7083;48.854;9.158;2023-05-17T02:34:47;5.10;99.90
14016;DHT22;7083;48.854;9.158;2023-05-17T02:37:14;5.10;99.90
14016;DHT22;7083;48.854;9.158;2023-05-17T02:39:41;5.10;99.90
14016;DHT22;7083;48.854;9.158;2023-05-17T02:42:07;5.10;99.90
14016;DHT22;7083;48.854;9.158;2023-05-17T02:44:34;5.10;99.90
14016;DHT22;7083;48.854;9.158;2023-05-17T02:47:00;5.10;99.90
14016;DHT22;7083;48.854;9.158;2023-05-17T02:49:27;5.10;99.90
14016;DHT22;7083;48.854;9.158;2023-05-17T02:51:55;5.00;99.90
14016;DHT22;7083;48.854;9.158;2023-05-17T02:54:22;5.00;99.90
14016;DHT22;7083;48.854;9.158;2023-05-17T02:56:48;4.90;99.90
14016;DHT22;7083;48.854;9.158;2023-05-17T02:59:15;4.90;99.90
14016;DHT22;7083;48.854;9.158;2023-05-17T03:01:42;4.90;99.90
14016;DHT22;7083;48.854;9.158;2023-05-17T03:04:09;4.90;99.90
14016;DHT22;7083;48.854;9.158;2023-05-17T03:06:36;4.80;99.90
14016;DHT22;7083;48.854;9.158;2023-05-17T03:09:04;4.70;99.90
14016;DHT22;7083;48.854;9.158;2023-05-17T03:11:31;4.70;99.90
14016;DHT22;7083;48.854;9.158;2023-05-17T03:13:58;4.70;99.90
14016;DHT22;7083;48.854;9.158;2023-05-17T03:16:24;4.60;99.90
14016;DHT22;7083;48.854;9.158;2023-05-17T03:18:51;4.60;99.90
14016;DHT22;7083;48.854;9.158;2023-05-17T03:21:18;4.60;99.90
14016;DHT22;7083;48.854;9.158;2023-05-17T03:23:44;4.40;99.90
14016;DHT22;7083;48.854;9.158;2023-05-17T03:26:12;4.40;99.90
14016;DHT22;7083;48.854;9.158;2023-05-17T03:28:39;4.30;99.90
14016;DHT22;7083;48.854;9.158;2023-05-17T03:31:06;4.20;99.90
14016;DHT22;7083;48.854;9.158;2023-05-17T03:33:32;4.20;99.90
14016;DHT22;7083;48.854;9.158;2023-05-17T03:35:59;4.10;99.90
14016;DHT22;7083;48.854;9.158;2023-05-17T03:38:26;4.10;99.90
14016;DHT22;7083;48.854;9.158;2023-05-17T03:40:53;4.10;99.90
14016;DHT22;7083;48.854;9.158;2023-05-17T03:43:21;4.00;99.90
14016;DHT22;7083;48.854;9.158;2023-05-17T03:45:47;4.00;99.90
14016;DHT22;7083;48.854;9.158;2023-05-17T03:48:14;3.90;99.90
14016;DHT22;7083;48.854;9.158;2023-05-17T03:50:41;3.90;99.90
14016;DHT22;7083;48.854;9.158;2023-05-17T03:53:08;3.90;99.90
14016;DHT22;7083;48.854;9.158;2023-05-17T03:55:35;3.90;99.90
14016;DHT22;7083;48.854;9.158;2023-05-17T03:58:01;3.90;99.90
14016;DHT22;7083;48.854;9.158;2023-05-17T04:00:29;3.80;99.90
14016;DHT22;7083;48.854;9.158;2023-05-17T04:02:56;3.80;99.90
14016;DHT22;7083;48.854;9.158;2023-05-17T04:05:23;3.80;99.90
14016;DHT22;7083;48.854;9.158;2023-05-17T04:07:49;3.80;99.90
14016;DHT22;7083;48.854;9.158;2023-05-17T04:10:16;3.80;99.90
14016;DHT22;7083;48.854;9.158;2023-05-17T04:12:43;3.80;99.90
14016;DHT22;7083;48.854;9.158;2023-05-17T04:15:10;3.90;99.90
14016;DHT22;7083;48.854;9.158;2023-05-17T04:17:38;3.90;99.90
14016;DHT22;7083;48.854;9.158;2023-05-17T04:20:05;4.00;99.90
14016;DHT22;7083;48.854;9.158;2023-05-17T04:22:32;4.00;99.90
14016;DHT22;7083;48.854;9.158;2023-05-17T04:24:59;4.00;99.90
14016;DHT22;7083;48.854;9.158;2023-05-17T04:27:26;4.10;99.90
14016;DHT22;7083;48.854;9.158;2023-05-17T04:29:52;4.20;99.90
14016;DHT22;7083;48.854;9.158;2023-05-17T04:32:19;4.30;99.90
14016;DHT22;7083;48.854;9.158;2023-05-17T04:34:47;4.40;99.90
14016;DHT22;7083;48.854;9.158;2023-05-17T04:37:14;4.50;99.90
14016;DHT22;7083;48.854;9.158;2023-05-17T04:39:41;4.60;99.90
14016;DHT22;7083;48.854;9.158;2023-05-17T04:42:08;4.70;99.90
14016;DHT22;7083;48.854;9.158;2023-05-17T04:44:34;4.80;99.90
14016;DHT22;7083;48.854;9.158;2023-05-17T04:47:01;4.90;99.90
14016;DHT22;7083;48.854;9.158;2023-05-17T04:49:28;5.00;99.90
14016;DHT22;7083;48.854;9.158;2023-05-17T04:51:56;5.00;99.90
14016;DHT22;7083;48.854;9.158;2023-05-17T04:54:22;5.10;99.90
14016;DHT22;7083;48.854;9.158;2023-05-17T04:56:50;5.20;99.90
14016;DHT22;7083;48.854;9.158;2023-05-17T04:59:16;5.30;99.90
14016;DHT22;7083;48.854;9.158;2023-05-17T05:01:43;5.30;99.90
14016;DHT22;7083;48.854;9.158;2023-05-17T05:04:10;5.40;99.90
14016;DHT22;7083;48.854;9.158;2023-05-17T05:06:36;5.40;99.90
14016;DHT22;7083;48.854;9.158;2023-05-17T05:09:04;5.50;99.90
14016;DHT22;7083;48.854;9.158;2023-05-17T05:11:31;5.50;99.90
14016;DHT22;7083;48.854;9.158;2023-05-17T05:13:58;5.60;99.90
14016;DHT22;7083;48.854;9.158;2023-05-17T05:16:25;5.70;99.90
14016;DHT22;7083;48.854;9.158;2023-05-17T05:18:51;5.70;99.90
14016;DHT22;7083;48.854;9.158;2023-05-17T05:21:18;5.80;99.90
14016;DHT22;7083;48.854;9.158;2023-05-17T05:23:44;5.80;99.90
14016;DHT22;7083;48.854;9.158;2023-05-17T05:26:12;5.90;99.90
14016;DHT22;7083;48.854;9.158;2023-05-17T05:28:39;6.00;99.90
14016;DHT22;7083;48.854;9.158;2023-05-17T05:31:06;6.00;99.90
14016;DHT22;7083;48.854;9.158;2023-05-17T05:33:32;6.10;99.90
14016;DHT22;7083;48.854;9.158;2023-05-17T05:35:59;6.10;99.90
14016;DHT22;7083;48.854;9.158;2023-05-17T05:38:26;6.20;99.90
14016;DHT22;7083;48.854;9.158;2023-05-17T05:40:52;6.30;99.90
14016;DHT22;7083;48.854;9.158;2023-05-17T05:43:20;6.40;99.90
14016;DHT22;7083;48.854;9.158;2023-05-17T05:45:48;6.50;99.90
14016;DHT22;7083;48.854;9.158;2023-05-17T05:48:14;6.50;99.90
14016;DHT22;7083;48.854;9.158;2023-05-17T05:50:43;6.60;99.90
14016;DHT22;7083;48.854;9.158;2023-05-17T05:53:09;6.70;99.90
14016;DHT22;7083;48.854;9.158;2023-05-17T05:55:39;6.80;99.90
14016;DHT22;7083;48.854;9.158;2023-05-17T05:58:06;6.90;99.90
14016;DHT22;7083;48.854;9.158;2023-05-17T06:00:34;6.90;99.90
14016;DHT22;7083;48.854;9.158;2023-05-17T06:03:01;7.00;99.90
14016;DHT22;7083;48.854;9.158;2023-05-17T06:05:28;7.00;99.90
14016;DHT22;7083;48.854;9.158;2023-05-17T06:07:54;7.00;99.90
14016;DHT22;7083;48.854;9.158;2023-05-17T06:10:21;7.10;99.90
14016;DHT22;7083;48.854;9.158;2023-05-17T06:12:48;7.20;99.90
14016;DHT22;7083;48.854;9.158;2023-05-17T06:15:15;7.20;99.90
14016;DHT22;7083;48.854;9.158;2023-05-17T06:17:43;7.30;99.90
14016;DHT22;7083;48.854;9.158;2023-05-17T06:20:10;7.40;99.90
14016;DHT22;7083;48.854;9.158;2023-05-17T06:22:37;7.50;99.90
14016;DHT22;7083;48.854;9.158;2023-05-17T06:25:04;7.50;99.90
14016;DHT22;7083;48.854;9.158;2023-05-17T06:27:31;7.50;99.90
14016;DHT22;7083;48.854;9.158;2023-05-17T06:29:58;7.60;99.90
14016;DHT22;7083;48.854;9.158;2023-05-17T06:32:25;7.60;99.90
14016;DHT22;7083;48.854;9.158;2023-05-17T06:34:54;7.70;99.90
14016;DHT22;7083;48.854;9.158;2023-05-17T06:37:21;7.80;99.90
14016;DHT22;7083;48.854;9.158;2023-05-17T06:39:50;7.80;99.90
14016;DHT22;7083;48.854;9.158;2023-05-17T06:42:17;8.00;99.90
14016;DHT22;7083;48.854;9.158;2023-05-17T06:44:44;8.00;99.90
14016;DHT22;7083;48.854;9.158;2023-05-17T06:47:10;8.10;99.90
14016;DHT22;7083;48.854;9.158;2023-05-17T06:49:37;8.10;99.90
14016;DHT22;7083;48.854;9.158;2023-05-17T06:52:05;8.20;99.90
14016;DHT22;7083;48.854;9.158;2023-05-17T06:54:32;8.30;99.90
14016;DHT22;7083;48.854;9.158;2023-05-17T06:56:59;8.30;99.90
14016;DHT22;7083;48.854;9.158;2023-05-17T06:59:26;8.40;99.90
14016;DHT22;7083;48.854;9.158;2023-05-17T07:01:52;8.50;99.90
14016;DHT22;7083;48.854;9.158;2023-05-17T07:04:19;8.50;99.90
14016;DHT22;7083;48.854;9.158;2023-05-17T07:06:46;8.60;99.90
14016;DHT22;7083;48.854;9.158;2023-05-17T07:09:14;8.70;99.90
14016;DHT22;7083;48.854;9.158;2023-05-17T07:11:40;8.80;99.90
14016;DHT22;7083;48.854;9.158;2023-05-17T07:14:07;8.90;99.90
14016;DHT22;7083;48.854;9.158;2023-05-17T07:16:34;9.00;99.90
14016;DHT22;7083;48.854;9.158;2023-05-17T07:19:00;9.10;99.90
14016;DHT22;7083;48.854;9.158;2023-05-17T07:21:27;9.10;99.90
14016;DHT22;7083;48.854;9.158;2023-05-17T07:23:54;9.30;99.90
14016;DHT22;7083;48.854;9.158;2023-05-17T07:26:22;9.40;99.90
14016;DHT22;7083;48.854;9.158;2023-05-17T07:28:49;9.50;99.90
14016;DHT22;7083;48.854;9.158;2023-05-17T07:31:16;9.60;99.90
14016;DHT22;7083;48.854;9.158;2023-05-17T07:33:43;9.80;99.90
14016;DHT22;7083;48.854;9.158;2023-05-17T07:36:10;9.90;99.90
14016;DHT22;7083;48.854;9.158;2023-05-17T07:38:36;10.10;99.90
14016;DHT22;7083;48.854;9.158;2023-05-17T07:41:03;10.20;99.90
14016;DHT22;7083;48.854;9.158;2023-05-17T07:43:35;10.30;99.90
14016;DHT22;7083;48.854;9.158;2023-05-17T07:46:01;10.40;99.90
14016;DHT22;7083;48.854;9.158;2023-05-17T07:48:28;10.50;99.90
14016;DHT22;7083;48.854;9.158;2023-05-17T07:50:55;10.50;99.90
14016;DHT22;7083;48.854;9.158;2023-05-17T07:53:21;10.50;99.90
14016;DHT22;7083;48.854;9.158;2023-05-17T07:55:48;10.40;99.90
14016;DHT22;7083;48.854;9.158;2023-05-17T07:58:15;10.40;99.90
14016;DHT22;7083;48.854;9.158;2023-05-17T08:00:43;10.40;99.90
14016;DHT22;7083;48.854;9.158;2023-05-17T08:03:09;10.40;99.90
14016;DHT22;7083;48.854;9.158;2023-05-17T08:05:36;10.40;99.90
14016;DHT22;7083;48.854;9.158;2023-05-17T08:08:03;10.40;99.90
14016;DHT22;7083;48.854;9.158;2023-05-17T08:10:30;10.40;99.90
14016;DHT22;7083;48.854;9.158;2023-05-17T08:12:56;10.50;99.90
14016;DHT22;7083;48.854;9.158;2023-05-17T08:15:23;10.50;99.90
14016;DHT22;7083;48.854;9.158;2023-05-17T08:17:51;10.60;99.90
14016;DHT22;7083;48.854;9.158;2023-05-17T08:20:17;10.80;99.90
14016;DHT22;7083;48.854;9.158;2023-05-17T08:22:44;10.80;99.90
14016;DHT22;7083;48.854;9.158;2023-05-17T08:25:11;10.90;99.90
14016;DHT22;7083;48.854;9.158;2023-05-17T08:27:37;11.00;99.90
14016;DHT22;7083;48.854;9.158;2023-05-17T08:30:05;11.10;99.90
14016;DHT22;7083;48.854;9.158;2023-05-17T08:32:32;11.20;99.90
14016;DHT22;7083;48.854;9.158;2023-05-17T08:35:00;11.40;99.90
14016;DHT22;7083;48.854;9.158;2023-05-17T08:37:27;11.50;99.90
14016;DHT22;7083;48.854;9.158;2023-05-17T08:39:53;11.60;99.90
14016;DHT22;7083;48.854;9.158;2023-05-17T08:42:21;11.80;99.90
14016;DHT22;7083;48.854;9.158;2023-05-17T08:44:49;12.00;99.90
14016;DHT22;7083;48.854;9.158;2023-05-17T08:47:16;12.10;99.90
14016;DHT22;7083;48.854;9.158;2023-05-17T08:49:50;12.20;98.70
14016;DHT22;7083;48.854;9.158;2023-05-17T08:52:19;12.40;98.90
14016;DHT22;7083;48.854;9.158;2023-05-17T08:54:46;12.50;98.60
14016;DHT22;7083;48.854;9.158;2023-05-17T08:57:13;12.60;98.40
14016;DHT22;7083;48.854;9.158;2023-05-17T08:59:43;12.80;98.00
14016;DHT22;7083;48.854;9.158;2023-05-17T09:02:12;12.90;97.10
14016;DHT22;7083;48.854;9.158;2023-05-17T09:04:40;13.10;96.00
14016;DHT22;7083;48.854;9.158;2023-05-17T09:07:07;13.10;95.20
14016;DHT22;7083;48.854;9.158;2023-05-17T09:09:35;13.30;95.40
14016;DHT22;7083;48.854;9.158;2023-05-17T09:12:02;13.50;95.00
14016;DHT22;7083;48.854;9.158;2023-05-17T09:14:32;13.60;93.60
14016;DHT22;7083;48.854;9.158;2023-05-17T09:17:00;13.60;92.80
14016;DHT22;7083;48.854;9.158;2023-05-17T09:19:27;13.60;91.60
14016;DHT22;7083;48.854;9.158;2023-05-17T09:21:58;13.70;91.60
14016;DHT22;7083;48.854;9.158;2023-05-17T09:24:27;13.90;92.30
14016;DHT22;7083;48.854;9.158;2023-05-17T09:27:00;14.10;92.70
14016;DHT22;7083;48.854;9.158;2023-05-17T09:29:30;14.40;92.70
14016;DHT22;7083;48.854;9.158;2023-05-17T09:31:58;14.70;92.40
14016;DHT22;7083;48.854;9.158;2023-05-17T09:34:37;15.10;89.70
14016;DHT22;7083;48.854;9.158;2023-05-17T09:37:05;15.30;86.90
14016;DHT22;7083;48.854;9.158;2023-05-17T09:39:33;15.50;88.00
14016;DHT22;7083;48.854;9.158;2023-05-17T09:42:04;15.60;84.40
14016;DHT22;7083;48.854;9.158;2023-05-17T09:44:30;15.70;85.00
14016;DHT22;7083;48.854;9.158;2023-05-17T09:46:58;15.80;83.90
14016;DHT22;7083;48.854;9.158;2023-05-17T09:49:26;15.80;83.20
14016;DHT22;7083;48.854;9.158;2023-05-17T09:51:54;15.80;83.50
14016;DHT22;7083;48.854;9.158;2023-05-17T09:54:21;15.80;84.90
14016;DHT22;7083;48.854;9.158;2023-05-17T09:56:52;15.80;81.40
14016;DHT22;7083;48.854;9.158;2023-05-17T09:59:21;15.70;82.50
14016;DHT22;7083;48.854;9.158;2023-05-17T10:01:50;15.70;81.40
14016;DHT22;7083;48.854;9.158;2023-05-17T10:04:17;15.60;82.00
14016;DHT22;7083;48.854;9.158;2023-05-17T10:06:48;15.60;82.40
14016;DHT22;7083;48.854;9.158;2023-05-17T10:09:17;15.70;81.00
14016;DHT22;7083;48.854;9.158;2023-05-17T10:11:47;15.70;79.50
14016;DHT22;7083;48.854;9.158;2023-05-17T10:14:17;15.70;78.10
14016;DHT22;7083;48.854;9.158;2023-05-17T10:16:48;15.60;80.10
14016;DHT22;7083;48.854;9.158;2023-05-17T10:19:16;15.50;81.00
14016;DHT22;7083;48.854;9.158;2023-05-17T10:21:47;15.40;82.20
14016;DHT22;7083;48.854;9.158;2023-05-17T10:24:15;15.50;84.50
14016;DHT22;7083;48.854;9.158;2023-05-17T10:26:42;15.40;85.80
14016;DHT22;7083;48.854;9.158;2023-05-17T10:29:09;15.40;84.90
14016;DHT22;7083;48.854;9.158;2023-05-17T10:31:36;15.50;84.40
14016;DHT22;7083;48.854;9.158;2023-05-17T10:34:04;15.50;85.20
14016;DHT22;7083;48.854;9.158;2023-05-17T10:36:32;15.70;87.00
14016;DHT22;7083;48.854;9.158;2023-05-17T10:38:59;16.00;83.60
14016;DHT22;7083;48.854;9.158;2023-05-17T10:41:29;16.40;83.40
14016;DHT22;7083;48.854;9.158;2023-05-17T10:43:58;16.80;79.30
14016;DHT22;7083;48.854;9.158;2023-05-17T10:46:25;16.90;74.70
14016;DHT22;7083;48.854;9.158;2023-05-17T10:48:53;17.00;77.40
14016;DHT22;7083;48.854;9.158;2023-05-17T10:51:24;17.20;78.60
14016;DHT22;7083;48.854;9.158;2023-05-17T10:54:07;17.50;80.50
14016;DHT22;7083;48.854;9.158;2023-05-17T10:56:34;17.80;81.30
14016;DHT22;7083;48.854;9.158;2023-05-17T10:59:18;18.00;77.50
14016;DHT22;7083;48.854;9.158;2023-05-17T11:01:59;18.00;76.70
14016;DHT22;7083;48.854;9.158;2023-05-17T11:04:28;18.10;74.60
14016;DHT22;7083;48.854;9.158;2023-05-17T11:07:27;18.00;75.70
14016;DHT22;7083;48.854;9.158;2023-05-17T11:10:03;18.00;76.50
14016;DHT22;7083;48.854;9.158;2023-05-17T11:12:33;18.10;78.00
14016;DHT22;7083;48.854;9.158;2023-05-17T11:15:03;18.20;77.30
14016;DHT22;7083;48.854;9.158;2023-05-17T11:17:34;18.30;77.00
14016;DHT22;7083;48.854;9.158;2023-05-17T11:20:05;18.30;76.80
14016;DHT22;7083;48.854;9.158;2023-05-17T11:22:38;18.20;78.50
14016;DHT22;7083;48.854;9.158;2023-05-17T11:25:07;17.90;78.60
14016;DHT22;7083;48.854;9.158;2023-05-17T11:27:42;17.70;77.30
14016;DHT22;7083;48.854;9.158;2023-05-17T11:30:16;17.70;78.10
14016;DHT22;7083;48.854;9.158;2023-05-17T11:32:48;17.70;76.90
14016;DHT22;7083;48.854;9.158;2023-05-17T11:35:16;17.80;75.90
14016;DHT22;7083;48.854;9.158;2023-05-17T11:37:45;18.00;76.40
14016;DHT22;7083;48.854;9.158;2023-05-17T11:40:23;18.10;72.20
14016;DHT22;7083;48.854;9.158;2023-05-17T11:43:08;18.10;77.30
14016;DHT22;7083;48.854;9.158;2023-05-17T11:45:41;18.30;75.40
14016;DHT22;7083;48.854;9.158;2023-05-17T11:48:09;18.20;77.40
14016;DHT22;7083;48.854;9.158;2023-05-17T11:50:36;18.00;76.70
14016;DHT22;7083;48.854;9.158;2023-05-17T11:53:05;18.10;73.60
14016;DHT22;7083;48.854;9.158;2023-05-17T11:55:32;18.10;75.60
14016;DHT22;7083;48.854;9.158;2023-05-17T11:58:01;18.10;74.40
14016;DHT22;7083;48.854;9.158;2023-05-17T12:00:28;18.00;76.70
14016;DHT22;7083;48.854;9.158;2023-05-17T12:02:54;18.00;76.90
14016;DHT22;7083;48.854;9.158;2023-05-17T12:05:21;18.10;76.20
14016;DHT22;7083;48.854;9.158;2023-05-17T12:07:48;18.10;73.90
14016;DHT22;7083;48.854;9.158;2023-05-17T12:10:18;18.00;75.10
14016;DHT22;7083;48.854;9.158;2023-05-17T12:12:46;18.10;73.90
14016;DHT22;7083;48.854;9.158;2023-05-17T12:15:18;18.10;74.30
14016;DHT22;7083;48.854;9.158;2023-05-17T12:17:45;18.00;75.00
14016;DHT22;7083;48.854;9.158;2023-05-17T12:20:14;18.10;76.10
14016;DHT22;7083;48.854;9.158;2023-05-17T12:22:51;18.20;73.10
14016;DHT22;7083;48.854;9.158;2023-05-17T12:25:20;18.20;76.20
14016;DHT22;7083;48.854;9.158;2023-05-17T12:27:49;18.10;76.40
14016;DHT22;7083;48.854;9.158;2023-05-17T12:30:17;18.00;74.40
14016;DHT22;7083;48.854;9.158;2023-05-17T12:32:44;18.00;75.00
14016;DHT22;7083;48.854;9.158;2023-05-17T12:35:12;18.10;76.20
14016;DHT22;7083;48.854;9.158;2023-05-17T12:37:39;18.30;75.60
14016;DHT22;7083;48.854;9.158;2023-05-17T12:40:07;18.70;75.00
14016;DHT22;7083;48.854;9.158;2023-05-17T12:42:37;19.20;75.70
14016;DHT22;7083;48.854;9.158;2023-05-17T12:45:09;19.90;71.50
14016;DHT22;7083;48.854;9.158;2023-05-17T12:47:37;20.30;69.90
14016;DHT22;7083;48.854;9.158;2023-05-17T12:50:04;20.50;67.80
14016;DHT22;7083;48.854;9.158;2023-05-17T12:52:33;20.50;71.00
14016;DHT22;7083;48.854;9.158;2023-05-17T12:55:02;20.60;70.20
14016;DHT22;7083;48.854;9.158;2023-05-17T12:57:29;20.50;70.20
14016;DHT22;7083;48.854;9.158;2023-05-17T12:59:57;20.50;67.20
14016;DHT22;7083;48.854;9.158;2023-05-17T13:02:27;20.50;66.70
14016;DHT22;7083;48.854;9.158;2023-05-17T13:04:53;20.50;68.10
14016;DHT22;7083;48.854;9.158;2023-05-17T13:07:21;20.30;69.00
14016;DHT22;7083;48.854;9.158;2023-05-17T13:09:48;20.40;71.60
14016;DHT22;7083;48.854;9.158;2023-05-17T13:12:18;20.40;67.70
14016;DHT22;7083;48.854;9.158;2023-05-17T13:14:47;20.60;67.10
14016;DHT22;7083;48.854;9.158;2023-05-17T13:17:18;21.30;67.30
14016;DHT22;7083;48.854;9.158;2023-05-17T13:19:49;21.90;62.90
14016;DHT22;7083;48.854;9.158;2023-05-17T13:22:16;22.20;61.80
14016;DHT22;7083;48.854;9.158;2023-05-17T13:24:43;22.30;63.70
14016;DHT22;7083;48.854;9.158;2023-05-17T13:27:10;22.30;64.20
14016;DHT22;7083;48.854;9.158;2023-05-17T13:29:40;22.20;64.00
14016;DHT22;7083;48.854;9.158;2023-05-17T13:32:08;22.20;66.30
14016;DHT22;7083;48.854;9.158;2023-05-17T13:34:37;21.90;64.60
14016;DHT22;7083;48.854;9.158;2023-05-17T13:37:04;21.60;60.50
14016;DHT22;7083;48.854;9.158;2023-05-17T13:39:31;21.20;63.20
14016;DHT22;7083;48.854;9.158;2023-05-17T13:41:57;20.80;61.80
14016;DHT22;7083;48.854;9.158;2023-05-17T13:44:24;20.40;66.40
14016;DHT22;7083;48.854;9.158;2023-05-17T13:46:51;20.00;65.60
14016;DHT22;7083;48.854;9.158;2023-05-17T13:49:17;19.90;65.60
14016;DHT22;7083;48.854;9.158;2023-05-17T13:51:45;19.80;69.50
14016;DHT22;7083;48.854;9.158;2023-05-17T13:54:12;19.60;67.00
14016;DHT22;7083;48.854;9.158;2023-05-17T13:56:39;19.30;68.10
14016;DHT22;7083;48.854;9.158;2023-05-17T13:59:06;19.10;71.20
14016;DHT22;7083;48.854;9.158;2023-05-17T14:01:32;18.90;68.90
14016;DHT22;7083;48.854;9.158;2023-05-17T14:06:26;18.80;71.20
14016;DHT22;7083;48.854;9.158;2023-05-17T14:08:54;18.40;70.70
14016;DHT22;7083;48.854;9.158;2023-05-17T14:11:23;18.40;73.50
14016;DHT22;7083;48.854;9.158;2023-05-17T14:13:50;18.20;70.60
14016;DHT22;7083;48.854;9.158;2023-05-17T14:16:16;18.10;75.60
14016;DHT22;7083;48.854;9.158;2023-05-17T14:18:43;17.80;74.60
14016;DHT22;7083;48.854;9.158;2023-05-17T14:21:10;17.60;76.30
14016;DHT22;7083;48.854;9.158;2023-05-17T14:23:37;17.40;76.30
14016;DHT22;7083;48.854;9.158;2023-05-17T14:26:05;17.30;74.20
14016;DHT22;7083;48.854;9.158;2023-05-17T14:28:32;17.20;73.90
14016;DHT22;7083;48.854;9.158;2023-05-17T14:31:02;17.10;73.00
14016;DHT22;7083;48.854;9.158;2023-05-17T14:33:28;17.00;75.70
14016;DHT22;7083;48.854;9.158;2023-05-17T14:35:55;16.90;73.30
14016;DHT22;7083;48.854;9.158;2023-05-17T14:38:22;16.80;72.70
14016;DHT22;7083;48.854;9.158;2023-05-17T14:40:48;16.50;75.10
14016;DHT22;7083;48.854;9.158;2023-05-17T14:43:16;16.30;77.70
14016;DHT22;7083;48.854;9.158;2023-05-17T14:45:44;16.20;76.60
14016;DHT22;7083;48.854;9.158;2023-05-17T14:48:11;15.90;79.10
14016;DHT22;7083;48.854;9.158;2023-05-17T14:50:37;15.60;81.30
14016;DHT22;7083;48.854;9.158;2023-05-17T14:53:04;15.40;82.00
14016;DHT22;7083;48.854;9.158;2023-05-17T14:55:31;15.20;82.20
14016;DHT22;7083;48.854;9.158;2023-05-17T14:57:57;15.10;83.20
14016;DHT22;7083;48.854;9.158;2023-05-17T15:00:27;15.00;83.00
14016;DHT22;7083;48.854;9.158;2023-05-17T15:02:54;15.00;82.20
14016;DHT22;7083;48.854;9.158;2023-05-17T15:05:21;15.00;80.00
14016;DHT22;7083;48.854;9.158;2023-05-17T15:07:48;15.00;80.30
14016;DHT22;7083;48.854;9.158;2023-05-17T15:10:15;15.00;78.30
14016;DHT22;7083;48.854;9.158;2023-05-17T15:12:41;15.10;82.90
14016;DHT22;7083;48.854;9.158;2023-05-17T15:15:09;15.20;84.70
14016;DHT22;7083;48.854;9.158;2023-05-17T15:17:38;15.50;84.30
14016;DHT22;7083;48.854;9.158;2023-05-17T15:20:06;15.90;81.90
14016;DHT22;7083;48.854;9.158;2023-05-17T15:22:32;16.00;81.20
14016;DHT22;7083;48.854;9.158;2023-05-17T15:24:59;16.30;80.30
14016;DHT22;7083;48.854;9.158;2023-05-17T15:27:26;16.70;82.90
14016;DHT22;7083;48.854;9.158;2023-05-17T15:29:52;18.50;82.10
14016;DHT22;7083;48.854;9.158;2023-05-17T15:32:19;19.70;69.80
14016;DHT22;7083;48.854;9.158;2023-05-17T15:34:47;20.10;70.30
14016;DHT22;7083;48.854;9.158;2023-05-17T15:37:13;20.20;66.40
14016;DHT22;7083;48.854;9.158;2023-05-17T15:39:40;19.90;63.00
14016;DHT22;7083;48.854;9.158;2023-05-17T15:42:07;19.50;63.60
14016;DHT22;7083;48.854;9.158;2023-05-17T15:44:34;19.00;68.80
14016;DHT22;7083;48.854;9.158;2023-05-17T15:47:00;18.30;70.00
14016;DHT22;7083;48.854;9.158;2023-05-17T15:49:27;17.90;71.20
14016;DHT22;7083;48.854;9.158;2023-05-17T15:51:55;17.60;72.20
14016;DHT22;7083;48.854;9.158;2023-05-17T15:54:21;17.40;74.00
14016;DHT22;7083;48.854;9.158;2023-05-17T15:56:48;18.10;76.20
14016;DHT22;7083;48.854;9.158;2023-05-17T15:59:15;19.50;74.00